createdAt,value
2023-05-17T00:03:00.058Z,-63
2023-05-17T00:08:01.326Z,-62
2023-05-17T00:13:02.574Z,-63
2023-05-17T00:18:04.004Z,-62
2023-05-17T00:23:05.376Z,-62
2023-05-17T00:28:06.563Z,-62
2023-05-17T00:33:07.893Z,-63
2023-05-17T00:38:09.148Z,-63
2023-05-17T00:43:10.386Z,-63
2023-05-17T00:48:11.676Z,-62
2023-05-17T00:53:16.249Z,-63
2023-05-17T00:58:17.448Z,-63
2023-05-17T01:03:18.856Z,-62
2023-05-17T01:08:20.394Z,-63
2023-05-17T01:13:21.609Z,-62
2023-05-17T01:18:23.017Z,-63
2023-05-17T01:23:24.438Z,-62
2023-05-17T01:28:26.024Z,-63
2023-05-17T01:33:27.442Z,-62
2023-05-17T01:38:28.785Z,-62
2023-05-17T01:43:30.037Z,-64
2023-05-17T01:48:31.288Z,-62
2023-05-17T01:53:32.506Z,-62
2023-05-17T01:58:33.734Z,-62
2023-05-17T02:03:35.052Z,-63
2023-05-17T02:08:36.314Z,-63
2023-05-17T02:13:37.661Z,-62
2023-05-17T02:18:40.475Z,-62
2023-05-17T02:23:41.863Z,-63
2023-05-17T02:28:43.098Z,-62
2023-05-17T02:33:44.363Z,-62
2023-05-17T02:38:45.691Z,-63
2023-05-17T02:43:46.904Z,-63
2023-05-17T02:48:48.132Z,-62
2023-05-17T02:53:49.367Z,-63
2023-05-17T02:58:50.685Z,-62
2023-05-17T03:03:52.270Z,-62
2023-05-17T03:08:53.623Z,-62
2023-05-17T03:13:54.851Z,-62
2023-05-17T03:18:56.214Z,-63
2023-05-17T03:23:58.092Z,-62
2023-05-17T03:28:59.278Z,-62
2023-05-17T03:34:00.597Z,-62
2023-05-17T03:39:01.919Z,-63
2023-05-17T03:44:03.184Z,-62
2023-05-17T03:49:04.456Z,-62
2023-05-17T03:54:06.126Z,-63
2023-05-17T03:59:07.421Z,-63
2023-05-17T04:04:08.737Z,-62
2023-05-17T04:09:11.013Z,-63
2023-05-17T04:14:12.352Z,-62
2023-05-17T04:19:13.676Z,-63
2023-05-17T04:24:14.950Z,-63
2023-05-17T04:29:16.154Z,-62
2023-05-17T04:34:17.485Z,-62
2023-05-17T04:39:18.788Z,-62
2023-05-17T04:44:20.055Z,-62
2023-05-17T04:49:21.270Z,-63
2023-05-17T04:54:22.484Z,-62
2023-05-17T04:59:23.733Z,-63
2023-05-17T05:04:25.538Z,-63
2023-05-17T05:09:29.270Z,-63
2023-05-17T05:14:30.526Z,-63
2023-05-17T05:19:31.827Z,-63
2023-05-17T05:24:33.091Z,-63
2023-05-17T05:29:34.306Z,-63
2023-05-17T05:34:35.544Z,-63
2023-05-17T05:39:36.815Z,-63
2023-05-17T05:44:38.044Z,-65
2023-05-17T05:49:39.305Z,-63
2023-05-17T05:54:40.642Z,-63
2023-05-17T05:59:41.887Z,-63
2023-05-17T06:04:45.694Z,-63
2023-05-17T06:09:47.251Z,-63
2023-05-17T06:14:48.475Z,-63
2023-05-17T06:19:49.808Z,-64
2023-05-17T06:24:51.169Z,-67
2023-05-17T06:29:52.675Z,-68
2023-05-17T06:34:53.938Z,-68
2023-05-17T06:40:00.056Z,-70
2023-05-17T06:45:05.512Z,-64
2023-05-17T06:50:06.954Z,-66
2023-05-17T06:55:09.249Z,-68
2023-05-17T07:00:11.223Z,-67
2023-05-17T07:05:12.693Z,-68
2023-05-17T07:10:13.931Z,-68
2023-05-17T07:15:15.790Z,-68
2023-05-17T07:20:17.162Z,-69
2023-05-17T07:25:18.840Z,-67
2023-05-17T07:30:20.194Z,-69
2023-05-17T07:35:21.917Z,-67
2023-05-17T07:40:23.606Z,-66
2023-05-17T07:45:24.810Z,-69
2023-05-17T07:50:26.405Z,-66
2023-05-17T07:55:27.841Z,-64
2023-05-17T08:00:29.280Z,-67
2023-05-17T08:05:30.742Z,-65
2023-05-17T08:10:34.633Z,-66
2023-05-17T08:15:36.133Z,-64
2023-05-17T08:20:37.947Z,-64
2023-05-17T08:25:39.301Z,-64
2023-05-17T08:30:41.315Z,-64
2023-05-17T08:35:42.559Z,-63
2023-05-17T08:40:43.774Z,-64
2023-05-17T08:45:45.009Z,-64
2023-05-17T08:50:46.646Z,-63
2023-05-17T08:55:50.758Z,-66
2023-05-17T09:00:51.980Z,-64
2023-05-17T09:05:57.089Z,-64
2023-05-17T09:10:59.400Z,-64
2023-05-17T09:16:00.645Z,-64
2023-05-17T09:21:02.030Z,-64
2023-05-17T09:26:03.228Z,-64
2023-05-17T09:31:04.478Z,-64
2023-05-17T09:36:05.701Z,-64
2023-05-17T09:41:06.966Z,-64
2023-05-17T09:46:08.313Z,-66
2023-05-17T09:51:09.578Z,-67
2023-05-17T09:56:10.892Z,-67
2023-05-17T10:01:12.399Z,-66
2023-05-17T10:06:27.754Z,-66
2023-05-17T10:11:34.408Z,-65
2023-05-17T10:16:35.749Z,-66
2023-05-17T10:21:36.978Z,-67
2023-05-17T10:26:38.699Z,-64
2023-05-17T10:31:39.992Z,-64
2023-05-17T10:36:41.275Z,-64
2023-05-17T10:41:42.536Z,-65
2023-05-17T10:46:43.773Z,-64
2023-05-17T10:51:45.002Z,-65
2023-05-17T10:56:46.248Z,-65
2023-05-17T11:01:47.699Z,-65
2023-05-17T11:06:48.974Z,-66
2023-05-17T11:11:50.217Z,-66
2023-05-17T11:16:51.410Z,-66
2023-05-17T11:21:52.740Z,-65
2023-05-17T11:26:53.975Z,-68
2023-05-17T11:31:55.174Z,-66
2023-05-17T11:36:56.548Z,-69
2023-05-17T11:41:57.934Z,-67
2023-05-17T11:46:59.210Z,-68
2023-05-17T11:52:00.471Z,-70
2023-05-17T11:57:04.599Z,-67
2023-05-17T12:02:05.911Z,-66
2023-05-17T12:07:07.111Z,-64
2023-05-17T12:12:08.653Z,-65
2023-05-17T12:17:09.986Z,-64
2023-05-17T12:22:14.498Z,-66
2023-05-17T12:27:15.742Z,-66
2023-05-17T12:32:16.994Z,-65
2023-05-17T12:37:18.198Z,-66
2023-05-17T12:42:19.376Z,-63
2023-05-17T12:47:20.636Z,-63
2023-05-17T12:52:21.809Z,-63
2023-05-17T12:57:23.060Z,-63
2023-05-17T13:02:24.362Z,-63
2023-05-17T13:07:25.785Z,-64
2023-05-17T13:12:27.072Z,-63
2023-05-17T13:17:28.352Z,-63
2023-05-17T13:22:29.620Z,-63
2023-05-17T13:27:30.938Z,-63
2023-05-17T13:32:32.294Z,-63
2023-05-17T13:37:33.614Z,-64
2023-05-17T13:42:34.827Z,-63
2023-05-17T13:47:36.120Z,-63
2023-05-17T13:52:37.362Z,-63
2023-05-17T13:57:38.662Z,-63
2023-05-17T14:02:39.906Z,-63
2023-05-17T14:07:42.969Z,-63
2023-05-17T14:12:44.171Z,-66
2023-05-17T14:17:45.727Z,-66
2023-05-17T14:22:47.044Z,-65
2023-05-17T14:27:48.353Z,-65
2023-05-17T14:32:49.735Z,-65
2023-05-17T14:37:51.008Z,-65
2023-05-17T14:42:52.238Z,-65
2023-05-17T14:47:53.504Z,-65
2023-05-17T14:52:54.701Z,-67
2023-05-17T14:57:57.590Z,-70
2023-05-17T15:02:59.060Z,-69
2023-05-17T15:08:00.338Z,-65
2023-05-17T15:13:02.301Z,-65
2023-05-17T15:18:03.538Z,-65
2023-05-17T15:23:04.772Z,-69
2023-05-17T15:28:06.445Z,-65
2023-05-17T15:33:08.196Z,-69
2023-05-17T15:38:09.473Z,-67
2023-05-17T15:43:10.708Z,-68
2023-05-17T15:48:11.975Z,-65
2023-05-17T15:53:13.369Z,-65
2023-05-17T15:58:14.691Z,-67
2023-05-17T16:03:16.008Z,-66
2023-05-17T16:08:17.323Z,-68
2023-05-17T16:13:18.548Z,-66
2023-05-17T16:18:19.928Z,-67
2023-05-17T16:23:21.763Z,-65
2023-05-17T16:28:23.012Z,-68
2023-05-17T16:33:24.323Z,-67
2023-05-17T16:38:26.154Z,-65
2023-05-17T16:43:27.437Z,-68
2023-05-17T16:48:28.705Z,-66
2023-05-17T16:53:30.083Z,-66
2023-05-17T16:58:31.489Z,-65
2023-05-17T17:03:32.782Z,-65
2023-05-17T17:08:34.039Z,-68
2023-05-17T17:13:35.738Z,-67
2023-05-17T17:18:37.278Z,-68
2023-05-17T17:23:40.200Z,-67
2023-05-17T17:28:41.496Z,-68
2023-05-17T17:33:42.687Z,-67
2023-05-17T17:38:43.954Z,-67
2023-05-17T17:43:47.543Z,-66
2023-05-17T17:48:48.730Z,-67
2023-05-17T17:53:52.034Z,-68
2023-05-17T17:58:56.389Z,-67
2023-05-17T18:03:57.663Z,-67
2023-05-17T18:09:02.098Z,-67
2023-05-17T18:14:04.470Z,-67
2023-05-17T18:19:05.851Z,-68
2023-05-17T18:24:07.070Z,-67
2023-05-17T18:29:08.288Z,-70
2023-05-17T18:34:09.508Z,-67
2023-05-17T18:39:10.923Z,-69
2023-05-17T18:44:13.763Z,-68
2023-05-17T18:49:16.866Z,-67
2023-05-17T18:54:18.101Z,-69
2023-05-17T18:59:19.385Z,-67
2023-05-17T19:04:20.811Z,-68
2023-05-17T19:09:22.109Z,-68
2023-05-17T19:14:23.390Z,-69
2023-05-17T19:19:24.861Z,-70
2023-05-17T19:24:26.139Z,-65
2023-05-17T19:29:28.290Z,-65
2023-05-17T19:34:29.546Z,-67
2023-05-17T19:39:30.827Z,-65
2023-05-17T19:44:32.100Z,-68
2023-05-17T19:49:33.416Z,-67
2023-05-17T19:54:34.743Z,-66
2023-05-17T19:59:36.028Z,-68
2023-05-17T20:04:37.308Z,-66
2023-05-17T20:09:38.569Z,-68
2023-05-17T20:14:39.799Z,-67
2023-05-17T20:19:41.246Z,-68
2023-05-17T20:24:44.014Z,-65
2023-05-17T20:29:45.234Z,-66
2023-05-17T20:34:46.618Z,-65
2023-05-17T20:39:48.014Z,-65
2023-05-17T20:44:49.282Z,-67
2023-05-17T20:49:50.554Z,-65
2023-05-17T20:54:52.375Z,-66
2023-05-17T20:59:53.645Z,-66
2023-05-17T21:04:54.956Z,-66
2023-05-17T21:09:56.208Z,-67
2023-05-17T21:15:14.547Z,-66
2023-05-17T21:20:16.902Z,-66
2023-05-17T21:25:18.166Z,-67
2023-05-17T21:30:19.450Z,-67
2023-05-17T21:35:20.675Z,-67
2023-05-17T21:40:21.923Z,-66
2023-05-17T21:45:23.125Z,-66
2023-05-17T21:50:24.473Z,-66
2023-05-17T21:55:27.046Z,-67
2023-05-17T22:00:28.984Z,-66
2023-05-17T22:05:30.567Z,-66
2023-05-17T22:10:34.045Z,-67
2023-05-17T22:15:35.307Z,-66
2023-05-17T22:20:36.613Z,-66
2023-05-17T22:25:37.942Z,-66
2023-05-17T22:30:39.235Z,-65
2023-05-17T22:35:41.338Z,-65
2023-05-17T22:40:42.610Z,-66
2023-05-17T22:45:43.863Z,-66
2023-05-17T22:50:45.520Z,-66
2023-05-17T22:55:48.864Z,-66
2023-05-17T23:00:53.224Z,-65
2023-05-17T23:06:02.239Z,-66
2023-05-17T23:11:05.370Z,-66
2023-05-17T23:16:07.802Z,-66
2023-05-17T23:21:09.563Z,-66
2023-05-17T23:26:10.923Z,-66
2023-05-17T23:31:12.193Z,-66
2023-05-17T23:36:13.479Z,-66
2023-05-17T23:41:18.165Z,-66
2023-05-17T23:46:19.723Z,-67
2023-05-17T23:51:21.252Z,-66
2023-05-17T23:56:23.044Z,-65
